Time;durP1;ratioP1;P1;durP2;ratioP2;P2;SDS_P1;SDS_P2;PMS_P1;PMS_P2;Temp;Humidity;BMP_temperature;BMP_pressure;BME280_temperature;BME280_humidity;BME280_pressure;Samples;Min_cycle;Max_cycle;Signal;HPM_P1;HPM_P2
2022/09/08 00:00:48;;;;;;;3.65;2.00;;;;;;;15.14;99.03;93482.34;5010945;28;20060;-67
2022/09/08 00:03:17;;;;;;;5.17;2.10;;;;;;;15.11;99.29;93483.28;5011458;28;20042;-66
2022/09/08 00:05:52;;;;;;;6.63;2.00;;;;;;;15.05;100.00;93478.78;5010461;28;20050;-68
2022/09/08 00:08:20;;;;;;;3.83;2.33;;;;;;;15.00;100.00;93485.69;5011278;28;20038;-66
2022/09/08 00:10:53;;;;;;;7.57;2.50;;;;;;;15.09;99.91;93499.56;5010481;28;20046;-66
2022/09/08 00:13:21;;;;;;;4.68;2.40;;;;;;;15.12;99.09;93503.38;5011255;28;20042;-67
2022/09/08 00:15:49;;;;;;;4.77;2.30;;;;;;;15.10;99.35;93505.84;5009120;28;20048;-66
2022/09/08 00:18:16;;;;;;;4.60;2.50;;;;;;;15.08;99.79;93508.28;5011251;28;20446;-66
2022/09/08 00:20:43;;;;;;;4.53;2.60;;;;;;;15.09;100.00;93507.03;5010984;28;20042;-71
2022/09/08 00:23:10;;;;;;;4.25;2.40;;;;;;;15.10;100.00;93519.66;5008932;28;20045;-66
2022/09/08 00:25:36;;;;;;;4.82;2.50;;;;;;;15.04;100.00;93538.81;5009277;28;20053;-66
2022/09/08 00:28:03;;;;;;;4.33;2.30;;;;;;;15.05;100.00;93537.59;5009222;28;20046;-66
2022/09/08 00:30:31;;;;;;;5.30;2.10;;;;;;;15.03;100.00;93534.53;5009342;28;20041;-68
2022/09/08 00:32:58;;;;;;;4.65;2.30;;;;;;;15.04;100.00;93538.81;5010268;28;20093;-67
2022/09/08 00:35:25;;;;;;;7.60;4.38;;;;;;;15.12;100.00;93539.31;5010771;28;20050;-66
2022/09/08 00:37:52;;;;;;;9.52;6.05;;;;;;;15.15;100.00;93530.09;5010163;28;20038;-71
2022/09/08 00:40:22;;;;;;;4.17;2.00;;;;;;;14.98;100.00;93526.81;5011028;28;20064;-66
2022/09/08 00:43:00;;;;;;;3.75;1.85;;;;;;;14.85;100.00;93529.69;5008699;28;20058;-67
2022/09/08 00:45:34;;;;;;;4.80;2.13;;;;;;;15.04;100.00;93524.25;5010231;28;20057;-68
2022/09/08 00:48:05;;;;;;;3.30;1.80;;;;;;;14.96;100.00;93524.50;5010115;28;20037;-70
2022/09/08 00:50:33;;;;;;;3.58;1.80;;;;;;;14.87;100.00;93518.94;5010241;28;20072;-66
2022/09/08 00:53:08;;;;;;;4.03;1.70;;;;;;;14.83;100.00;93510.03;5009947;28;20041;-66
2022/09/08 00:55:37;;;;;;;4.97;2.10;;;;;;;14.94;100.00;93509.59;5010079;28;20127;-68
2022/09/08 00:58:05;;;;;;;2.80;1.70;;;;;;;14.96;100.00;93507.16;5008806;28;20458;-71
2022/09/08 01:00:36;;;;;;;5.00;2.10;;;;;;;15.01;100.00;93525.94;5010294;28;20054;-67
2022/09/08 01:03:06;;;;;;;4.60;2.00;;;;;;;15.08;100.00;93525.63;5008146;28;20068;-66
2022/09/08 01:05:47;;;;;;;4.13;1.90;;;;;;;15.09;100.00;93534.69;5009920;28;20057;-71
2022/09/08 01:14:48;;;;;;;3.75;2.13;;;;;;;15.09;100.00;93540.22;5009486;28;20053;-66
2022/09/08 01:17:25;;;;;;;5.28;2.17;;;;;;;15.08;100.00;93538.69;5009110;28;20961;-67
2022/09/08 01:19:53;;;;;;;3.90;2.40;;;;;;;15.05;100.00;93537.59;5009441;28;20475;-68
2022/09/08 01:22:39;;;;;;;3.40;1.90;;;;;;;15.04;100.00;93549.13;5010183;28;20076;-67
2022/09/08 01:25:26;;;;;;;8.15;4.30;;;;;;;15.05;100.00;93551.44;5009897;28;20044;-66
2022/09/08 01:28:04;;;;;;;4.45;1.70;;;;;;;15.12;100.00;93547.63;5009533;28;20058;-70
2022/09/08 01:30:34;;;;;;;4.05;1.88;;;;;;;15.07;100.00;93548.19;4997623;28;20053;-70
2022/09/08 01:33:05;;;;;;;9.67;1.60;;;;;;;15.03;100.00;93545.59;5009569;28;20454;-71
2022/09/08 01:35:41;;;;;;;3.63;1.58;;;;;;;14.93;100.00;93532.91;5006437;28;20431;-67
2022/09/08 01:38:09;;;;;;;3.75;1.60;;;;;;;14.96;100.00;93535.56;5009665;28;20190;-68
2022/09/08 01:40:38;;;;;;;4.75;1.73;;;;;;;14.89;100.00;93535.06;5012153;28;20660;-70
2022/09/08 01:43:09;;;;;;;3.95;1.65;;;;;;;14.91;99.82;93519.59;5013635;28;20046;-67
2022/09/08 01:45:37;;;;;;;4.77;1.63;;;;;;;14.90;100.00;93522.78;5013402;28;20046;-66
2022/09/08 01:48:06;;;;;;;3.15;1.60;;;;;;;14.92;100.00;93523.09;5013328;28;20056;-66
2022/09/08 01:50:34;;;;;;;3.70;1.70;;;;;;;14.76;100.00;93511.03;5013610;28;20045;-69
2022/09/08 01:53:02;;;;;;;3.38;1.60;;;;;;;14.73;100.00;93508.44;5011912;28;20415;-66
2022/09/08 01:55:28;;;;;;;2.80;1.70;;;;;;;14.75;100.00;93497.72;5014055;28;20487;-66
2022/09/08 01:57:55;;;;;;;4.93;1.60;;;;;;;14.72;100.00;93493.09;5011611;28;20417;-71
2022/09/08 02:00:22;;;;;;;2.92;1.65;;;;;;;14.75;100.00;93487.44;5013585;28;20053;-68
2022/09/08 02:02:48;;;;;;;3.22;1.75;;;;;;;14.70;100.00;93485.25;5013149;28;20052;-69
2022/09/08 02:05:16;;;;;;;4.90;1.50;;;;;;;14.66;100.00;93478.31;5012063;28;20411;-71
2022/09/08 02:07:50;;;;;;;2.92;1.65;;;;;;;14.72;100.00;93480.03;5012708;28;20049;-66
2022/09/08 02:10:17;;;;;;;2.90;1.60;;;;;;;14.70;100.00;93481.72;5012210;28;20411;-70
2022/09/08 02:12:43;;;;;;;3.08;1.50;;;;;;;14.67;100.00;93477.88;5014114;28;20046;-67
2022/09/08 02:15:11;;;;;;;3.30;1.70;;;;;;;14.75;100.00;93475.63;5012291;28;20668;-66
2022/09/08 02:17:37;;;;;;;3.50;1.70;;;;;;;14.75;100.00;93486.66;5013233;28;20057;-66
2022/09/08 02:20:05;;;;;;;3.75;1.80;;;;;;;14.75;100.00;93484.66;5013124;28;20050;-66
2022/09/08 02:22:32;;;;;;;8.53;4.73;;;;;;;14.77;100.00;93496.03;5013545;28;20048;-66
2022/09/08 02:24:59;;;;;;;4.15;2.10;;;;;;;14.74;100.00;93496.16;5011182;28;20049;-67
2022/09/08 02:27:26;;;;;;;5.13;1.88;;;;;;;14.74;100.00;93498.91;5013136;28;20049;-71
2022/09/08 02:29:52;;;;;;;3.08;1.90;;;;;;;14.76;100.00;93496.47;5012300;28;20529;-67
2022/09/08 02:32:19;;;;;;;3.78;1.90;;;;;;;14.75;100.00;93494.94;5013097;28;20417;-66
2022/09/08 02:34:46;;;;;;;3.13;1.73;;;;;;;14.74;100.00;93498.91;5012179;28;20057;-66
2022/09/08 02:37:12;;;;;;;3.38;1.70;;;;;;;14.83;100.00;93495.44;5012888;28;20434;-67
2022/09/08 02:39:39;;;;;;;4.47;1.50;;;;;;;14.76;100.00;93496.47;5012655;28;20038;-66
2022/09/08 02:42:07;;;;;;;3.80;1.52;;;;;;;14.78;100.00;93499.56;5012314;28;20038;-71
2022/09/08 02:44:34;;;;;;;4.65;1.60;;;;;;;14.75;100.00;93501.25;5011305;28;20044;-67
2022/09/08 02:47:01;;;;;;;3.27;1.60;;;;;;;14.76;100.00;93496.47;5027640;28;20060;-66
2022/09/08 02:49:30;;;;;;;3.35;1.50;;;;;;;14.70;100.00;93490.75;5012756;28;20050;-66
2022/09/08 02:51:56;;;;;;;3.00;1.50;;;;;;;14.74;100.00;93491.41;5011934;28;20053;-66
2022/09/08 02:54:24;;;;;;;3.05;1.40;;;;;;;14.76;100.00;93479.91;5012715;28;20503;-66
2022/09/08 02:56:50;;;;;;;2.95;1.35;;;;;;;14.74;100.00;93479.59;5011587;28;20410;-67
2022/09/08 02:59:17;;;;;;;3.23;1.60;;;;;;;14.73;100.00;93475.31;5012637;28;20380;-70
2022/09/08 03:01:44;;;;;;;2.30;1.20;;;;;;;14.72;100.00;93482.78;5011984;28;20107;-64
2022/09/08 03:04:11;;;;;;;2.83;1.30;;;;;;;14.72;100.00;93480.03;5012790;28;20422;-70
2022/09/08 03:06:38;;;;;;;3.30;1.45;;;;;;;14.70;100.00;93473.44;5012111;28;20050;-66
2022/09/08 03:09:07;;;;;;;3.30;1.30;;;;;;;14.63;100.00;93480.00;5009992;28;20044;-67
2022/09/08 03:11:33;;;;;;;3.00;1.40;;;;;;;14.67;100.00;93475.13;5013012;28;20046;-67
2022/09/08 03:14:01;;;;;;;4.60;1.20;;;;;;;14.69;100.00;93471.88;5012113;28;20064;-66
2022/09/08 03:16:28;;;;;;;2.50;1.40;;;;;;;14.58;100.00;93470.28;5010998;28;20046;-70
2022/09/08 03:18:54;;;;;;;3.80;1.50;;;;;;;14.64;100.00;93473.25;5011453;28;20056;-67
2022/09/08 03:21:21;;;;;;;2.65;1.23;;;;;;;14.61;100.00;93470.59;5012003;28;20447;-67
2022/09/08 03:23:48;;;;;;;2.83;1.43;;;;;;;14.65;100.00;93466.50;5011561;28;20049;-67
2022/09/08 03:26:18;;;;;;;3.60;1.30;;;;;;;14.66;100.00;93461.75;5011815;28;20161;-65
2022/09/08 03:28:51;;;;;;;3.22;1.40;;;;;;;14.68;100.00;93457.31;5011306;28;20046;-65
2022/09/08 03:31:19;;;;;;;5.10;1.35;;;;;;;14.52;100.00;93444.47;5011776;28;20034;-70
2022/09/08 03:33:46;;;;;;;4.05;1.35;;;;;;;14.56;100.00;93450.66;5010978;28;20044;-66
2022/09/08 03:36:15;;;;;;;2.87;1.40;;;;;;;14.65;100.00;93461.00;5011802;28;20048;-70
2022/09/08 03:38:43;;;;;;;2.40;1.20;;;;;;;14.65;100.00;93455.47;5011617;28;20041;-66
2022/09/08 03:41:13;;;;;;;3.47;1.60;;;;;;;14.70;100.00;93454.84;5011299;28;20107;-65
2022/09/08 03:43:48;;;;;;;2.85;1.25;;;;;;;14.62;99.70;93448.06;5010182;28;20048;-67
2022/09/08 03:46:16;;;;;;;2.53;1.10;;;;;;;14.57;100.00;93471.53;5010549;28;20662;-65
2022/09/08 03:48:43;;;;;;;2.67;1.20;;;;;;;14.50;100.00;93460.72;5011263;28;20480;-65
2022/09/08 03:51:24;;;;;;;2.45;1.25;;;;;;;14.46;99.95;93468.34;5010888;28;20403;-65
2022/09/08 03:56:42;;;;;;;2.30;1.20;;;;;;;14.46;99.50;93462.84;5011255;28;20084;-67
2022/09/08 03:59:10;;;;;;;2.55;1.08;;;;;;;14.52;99.84;93457.50;5010576;28;20137;-65
2022/09/08 04:01:37;;;;;;;3.37;1.27;;;;;;;14.47;99.38;93455.34;5011163;28;20050;-65
2022/09/08 04:04:03;;;;;;;4.32;1.15;;;;;;;14.34;100.00;93456.16;5010218;28;20915;-66
2022/09/08 04:06:30;;;;;;;2.50;1.00;;;;;;;14.30;100.00;93454.78;5010222;28;20046;-63
2022/09/08 04:08:58;;;;;;;2.30;1.23;;;;;;;14.26;100.00;93460.41;5006449;28;20046;-71
2022/09/08 04:11:24;;;;;;;3.13;1.33;;;;;;;14.30;100.00;93457.53;5011540;28;20050;-65
2022/09/08 04:13:51;;;;;;;2.70;1.50;;;;;;;14.31;100.00;93456.31;5010647;28;20045;-71
2022/09/08 04:16:18;;;;;;;4.22;2.00;;;;;;;14.31;100.00;93450.81;5010810;28;20050;-65
2022/09/08 04:18:45;;;;;;;3.30;1.77;;;;;;;14.27;100.00;93445.41;5010156;28;20064;-70
2022/09/08 04:21:12;;;;;;;2.47;1.25;;;;;;;14.31;100.00;93446.03;5011051;28;20376;-65
2022/09/08 04:23:39;;;;;;;2.78;1.40;;;;;;;14.28;100.00;93444.19;5009689;28;20117;-65
2022/09/08 04:26:10;;;;;;;2.40;1.40;;;;;;;14.28;100.00;93463.50;4992295;28;20050;-68
2022/09/08 04:28:37;;;;;;;2.50;1.00;;;;;;;14.17;100.00;93469.41;5011073;28;20044;-65
2022/09/08 04:31:05;;;;;;;3.30;1.38;;;;;;;14.21;100.00;93476.81;5009980;28;20041;-64
2022/09/08 04:33:32;;;;;;;2.80;1.45;;;;;;;14.27;100.00;93472.25;5010794;28;20050;-65
2022/09/08 04:36:07;;;;;;;3.40;1.30;;;;;;;14.40;100.00;93478.44;5009912;28;20057;-66
2022/09/08 04:38:53;;;;;;;3.40;1.40;;;;;;;14.35;100.00;93484.56;5010258;28;20042;-70
2022/09/08 04:41:20;;;;;;;2.92;1.30;;;;;;;14.28;100.00;93490.34;5010546;28;20038;-65
2022/09/08 04:43:46;;;;;;;3.03;1.20;;;;;;;14.24;100.00;93490.47;5009362;28;20054;-63
2022/09/08 04:46:16;;;;;;;3.63;1.48;;;;;;;14.22;100.00;93487.38;5010304;28;20581;-65
2022/09/08 04:48:44;;;;;;;2.92;1.35;;;;;;;14.26;100.00;93496.31;5010293;28;20050;-75
2022/09/08 04:51:16;;;;;;;2.50;1.30;;;;;;;14.26;100.00;93501.06;4992299;28;20444;-65
2022/09/08 04:53:44;;;;;;;2.58;1.20;;;;;;;14.25;100.00;93505.06;5010221;28;20060;-76
2022/09/08 04:56:12;;;;;;;4.38;1.40;;;;;;;14.22;100.00;93500.41;5009598;28;21676;-65
2022/09/08 04:58:41;;;;;;;3.65;1.50;;;;;;;14.30;100.00;93501.69;5010126;28;20119;-69
2022/09/08 05:01:14;;;;;;;4.43;1.60;;;;;;;14.37;100.00;93513.25;5009662;28;20111;-69
2022/09/08 05:03:41;;;;;;;2.87;1.30;;;;;;;14.42;100.00;93516.66;5009978;28;20050;-69
2022/09/08 05:06:11;;;;;;;2.60;1.30;;;;;;;14.45;100.00;93515.78;5009569;28;20054;-67
2022/09/08 05:08:38;;;;;;;3.85;1.20;;;;;;;14.45;100.00;93511.00;5010169;28;20042;-68
2022/09/08 05:11:05;;;;;;;3.10;1.30;;;;;;;14.58;100.00;93508.94;4993712;28;20087;-63
2022/09/08 05:13:31;;;;;;;2.97;1.20;;;;;;;14.54;100.00;93508.28;5010086;28;20053;-66
2022/09/08 05:16:03;;;;;;;2.90;1.20;;;;;;;14.60;100.00;93496.69;5008771;28;20049;-63
2022/09/08 05:18:30;;;;;;;3.50;1.20;;;;;;;14.45;100.00;93494.44;5010077;28;20427;-66
2022/09/08 05:20:57;;;;;;;4.30;1.60;;;;;;;14.45;100.00;93510.25;5009285;28;20395;-63
2022/09/08 05:23:24;;;;;;;2.97;1.00;;;;;;;14.41;99.39;93506.81;5010009;28;20045;-68
2022/09/08 05:26:00;;;;;;;2.83;1.10;;;;;;;14.49;98.79;93505.38;5009090;28;20054;-62
2022/09/08 05:28:29;;;;;;;2.53;1.20;;;;;;;14.44;98.40;93505.94;5009301;28;20054;-62
2022/09/08 05:30:57;;;;;;;2.65;1.27;;;;;;;14.36;99.53;93505.41;5008629;28;20041;-62
2022/09/08 05:33:23;;;;;;;3.72;1.25;;;;;;;14.40;99.39;93503.28;5009201;28;20049;-63
2022/09/08 05:35:51;;;;;;;2.90;1.20;;;;;;;14.46;100.00;93497.97;5008467;28;20054;-63
2022/09/08 05:38:17;;;;;;;3.97;1.27;;;;;;;14.46;99.96;93497.97;5009398;28;20115;-64
2022/09/08 05:40:44;;;;;;;4.73;1.53;;;;;;;14.62;100.00;93510.81;5007460;28;20045;-63
2022/09/08 05:43:11;;;;;;;3.38;1.20;;;;;;;14.62;99.21;93510.81;5009091;28;20045;-70
2022/09/08 05:45:43;;;;;;;5.00;1.20;;;;;;;14.61;97.25;93523.88;5009015;28;20054;-63
2022/09/08 05:48:09;;;;;;;2.70;1.38;;;;;;;14.62;97.10;93533.69;5008375;28;20045;-63
2022/09/08 05:50:36;;;;;;;4.22;1.08;;;;;;;14.66;96.37;93541.84;5009416;28;20407;-63
2022/09/08 05:53:03;;;;;;;4.17;1.30;;;;;;;14.54;96.88;93540.66;5008496;28;20042;-63
2022/09/08 05:55:30;;;;;;;4.05;1.10;;;;;;;14.49;96.97;93542.03;5008921;28;20521;-65
2022/09/08 05:57:56;;;;;;;3.08;1.42;;;;;;;14.34;97.50;93533.47;5008884;28;20072;-70
2022/09/08 06:00:43;;;;;;;2.88;1.30;;;;;;;14.18;99.48;93539.97;5007983;28;20045;-65
2022/09/08 06:03:11;;;;;;;2.60;1.27;;;;;;;14.23;99.85;93543.38;5007636;28;20688;-66
2022/09/08 06:05:38;;;;;;;3.23;1.40;;;;;;;14.16;99.73;93539.63;5007852;28;20532;-65
2022/09/08 06:08:04;;;;;;;2.75;1.40;;;;;;;14.21;99.21;93537.53;5008083;28;20060;-64
2022/09/08 06:10:35;;;;;;;3.60;1.65;;;;;;;14.26;98.65;93543.22;5007228;28;20046;-64
2022/09/08 06:13:02;;;;;;;4.78;1.50;;;;;;;14.22;98.62;93536.28;5008829;28;20042;-65
2022/09/08 06:15:29;;;;;;;3.45;1.58;;;;;;;14.19;98.71;93533.22;5009673;28;20050;-65
2022/09/08 06:17:57;;;;;;;2.63;1.23;;;;;;;14.28;98.00;93535.25;5008360;28;20046;-66
2022/09/08 06:20:24;;;;;;;2.83;1.35;;;;;;;14.37;96.90;93534.56;5008440;28;20095;-67
2022/09/08 06:22:51;;;;;;;4.57;1.42;;;;;;;14.37;96.42;93534.56;5007678;28;20042;-69
2022/09/08 06:25:17;;;;;;;3.72;1.60;;;;;;;14.53;96.42;93533.63;5010102;28;20084;-66
2022/09/08 06:28:15;;;;;;;4.35;1.55;;;;;;;14.59;96.84;93542.88;5012223;28;20529;-63
2022/09/08 06:30:46;;;;;;;4.03;1.50;;;;;;;14.60;96.94;93540.88;5013224;28;20056;-66
2022/09/08 06:33:29;;;;;;;3.42;1.50;;;;;;;14.69;96.80;93544.47;5012104;28;20057;-66
2022/09/08 06:36:10;;;;;;;5.40;1.60;;;;;;;14.81;95.42;93539.31;5003522;28;20471;-68
2022/09/08 06:38:53;;;;;;;3.55;1.50;;;;;;;14.88;95.04;93539.81;5013253;28;20076;-66
2022/09/08 06:41:42;;;;;;;3.20;1.70;;;;;;;15.00;93.27;93540.94;5012269;28;20764;-66
2022/09/08 06:44:16;;;;;;;3.27;1.50;;;;;;;15.10;93.30;93545.28;5012303;28;20058;-66
2022/09/08 06:46:44;;;;;;;5.00;1.48;;;;;;;15.42;91.97;93546.03;5012741;28;20042;-66
2022/09/08 06:49:11;;;;;;;3.30;1.70;;;;;;;15.42;91.49;93551.56;5010315;28;20873;-66
2022/09/08 06:52:15;;;;;;;2.88;1.40;;;;;;;15.38;91.47;93543.41;5012648;28;20403;-71
2022/09/08 06:54:54;;;;;;;3.72;1.75;;;;;;;15.49;91.68;93548.53;5011881;28;20864;-66
2022/09/08 06:57:29;;;;;;;4.93;1.53;;;;;;;15.40;90.46;93540.19;5011747;28;20417;-70
2022/09/08 07:00:10;;;;;;;3.50;1.60;;;;;;;15.73;89.20;93550.75;4998683;28;20516;-73
2022/09/08 07:02:56;;;;;;;3.63;1.58;;;;;;;15.89;88.74;93549.69;5012302;28;20038;-67
2022/09/08 07:05:31;;;;;;;3.00;1.48;;;;;;;18.77;76.17;93548.94;5012108;28;20045;-66
2022/09/08 07:08:30;;;;;;;4.15;1.20;;;;;;;18.00;77.04;93550.47;5011845;28;20628;-66
2022/09/08 07:11:06;;;;;;;2.33;1.10;;;;;;;19.65;70.04;93547.38;4986814;28;20042;-72
2022/09/08 07:14:12;;;;;;;2.28;1.00;;;;;;;17.14;77.23;93557.31;5012654;28;20434;-67
2022/09/08 07:17:04;;;;;;;3.55;1.30;;;;;;;16.57;82.35;93555.88;4988756;28;20049;-68
2022/09/08 07:19:40;;;;;;;2.95;1.20;;;;;;;16.30;82.58;93553.91;5026523;28;20674;-66
2022/09/08 07:22:32;;;;;;;2.83;1.30;;;;;;;16.06;84.49;93562.03;5011680;28;20041;-67
2022/09/08 07:25:31;;;;;;;3.90;1.50;;;;;;;16.34;84.80;93557.28;5010200;28;20053;-67
2022/09/08 07:28:21;;;;;;;2.50;1.30;;;;;;;16.66;84.27;93559.88;4994840;28;20411;-66
2022/09/08 07:30:56;;;;;;;2.80;1.40;;;;;;;16.80;82.47;93567.53;5011834;28;20068;-67
2022/09/08 07:33:41;;;;;;;2.97;1.20;;;;;;;16.69;81.22;93551.41;5011888;28;20110;-67
2022/09/08 07:36:47;;;;;;;2.38;1.20;;;;;;;16.54;82.13;93554.03;5003135;28;20384;-70
2022/09/08 07:39:37;;;;;;;2.67;1.30;;;;;;;16.78;81.25;93562.47;4985991;28;20037;-66
2022/09/08 07:42:06;;;;;;;2.70;1.33;;;;;;;16.67;80.41;93569.72;5010991;28;20046;-67
2022/09/08 07:44:39;;;;;;;2.53;1.15;;;;;;;16.68;80.66;93572.03;5011648;28;20107;-68
2022/09/08 07:47:39;;;;;;;3.15;1.40;;;;;;;17.00;80.77;93566.31;5011213;28;20044;-67
2022/09/08 07:50:53;;;;;;;3.17;1.40;;;;;;;17.40;79.93;93568.03;5011075;28;20050;-68
2022/09/08 07:53:23;;;;;;;2.83;1.40;;;;;;;17.88;74.52;93573.69;5010343;28;20261;-67
2022/09/08 07:55:50;;;;;;;4.45;1.30;;;;;;;17.88;75.94;93573.69;5011142;28;20042;-67
2022/09/08 07:58:25;;;;;;;2.92;1.20;;;;;;;18.12;75.21;93570.91;5011164;28;20054;-69
2022/09/08 08:01:07;;;;;;;2.60;1.20;;;;;;;18.36;74.82;93576.47;5009930;28;20487;-67
2022/09/08 08:03:55;;;;;;;2.50;1.10;;;;;;;18.85;69.43;93572.34;5011439;28;20095;-67
2022/09/08 08:06:43;;;;;;;2.80;1.00;;;;;;;19.13;70.08;93575.63;5010135;28;20433;-72
2022/09/08 08:09:16;;;;;;;2.88;1.15;;;;;;;21.85;60.92;93579.72;5010138;28;20633;-67
2022/09/08 08:12:01;;;;;;;4.05;1.00;;;;;;;24.08;52.93;93576.53;5011491;28;20479;-68
2022/09/08 08:14:35;;;;;;;3.70;1.02;;;;;;;27.58;45.40;93576.53;5010067;28;20878;-66
2022/09/08 08:17:36;;;;;;;3.67;1.00;;;;;;;25.94;45.75;93584.09;5010621;28;20092;-65
2022/09/08 08:20:25;;;;;;;2.00;0.97;;;;;;;25.58;47.72;93584.09;5010595;28;20038;-68
2022/09/08 08:23:10;;;;;;;2.15;1.15;;;;;;;26.66;46.27;93579.03;5010719;28;20053;-67
2022/09/08 08:25:49;;;;;;;2.78;0.98;;;;;;;25.08;48.03;93585.16;5011240;28;20046;-67
2022/09/08 08:28:18;;;;;;;2.00;0.93;;;;;;;22.76;53.77;93575.38;5009819;28;20582;-71
2022/09/08 08:30:45;;;;;;;3.55;1.00;;;;;;;22.02;55.83;93588.97;5010346;28;20046;-69
2022/09/08 08:33:21;;;;;;;2.47;1.20;;;;;;;21.87;58.75;93591.94;5010981;28;20411;-67
2022/09/08 08:35:52;;;;;;;3.25;1.23;;;;;;;22.11;55.47;93591.59;5010432;28;20041;-70
2022/09/08 08:38:28;;;;;;;2.78;1.30;;;;;;;22.81;54.44;93594.22;5010768;28;20066;-67
2022/09/08 08:40:57;;;;;;;3.17;1.15;;;;;;;21.10;58.48;93590.75;5010382;28;20057;-73
2022/09/08 08:43:33;;;;;;;2.63;1.20;;;;;;;20.59;60.30;93593.00;5010861;28;20470;-68
2022/09/08 08:46:51;;;;;;;3.47;1.30;;;;;;;20.09;61.96;93601.44;5009500;28;20188;-67
2022/09/08 08:49:43;;;;;;;3.58;1.20;;;;;;;20.71;60.63;93608.59;4980512;28;20856;-68
2022/09/08 08:52:31;;;;;;;3.30;1.27;;;;;;;20.43;61.58;93608.22;4996973;28;20381;-67
2022/09/08 08:55:22;;;;;;;3.28;1.35;;;;;;;19.62;63.24;93611.59;5009391;28;20558;-67
2022/09/08 08:58:10;;;;;;;3.42;1.30;;;;;;;19.25;65.27;93612.00;5010128;28;20054;-69
2022/09/08 09:01:15;;;;;;;4.77;1.33;;;;;;;19.19;66.83;93613.91;5009754;28;20052;-75
2022/09/08 09:04:06;;;;;;;3.75;1.50;;;;;;;18.80;69.35;93611.97;5010407;28;20041;-72
2022/09/08 09:06:54;;;;;;;2.78;1.30;;;;;;;19.13;70.21;93608.25;5009517;28;20673;-66
2022/09/08 09:09:36;;;;;;;3.05;1.20;;;;;;;21.33;63.29;93614.81;5009392;28;20441;-66
2022/09/08 09:12:26;;;;;;;2.60;1.30;;;;;;;23.12;55.05;93610.88;5009850;28;20053;-70
2022/09/08 09:15:20;;;;;;;2.60;1.10;;;;;;;23.53;50.70;93610.44;5009769;28;20042;-67
2022/09/08 09:18:31;;;;;;;2.30;1.08;;;;;;;21.11;58.59;93623.75;5000442;28;20053;-67
2022/09/08 09:21:08;;;;;;;3.15;1.13;;;;;;;23.42;54.79;93604.84;4992521;28;20065;-78
2022/09/08 09:23:59;;;;;;;4.90;1.00;;;;;;;25.11;48.90;93609.38;5010149;28;20050;-71
2022/09/08 09:26:32;;;;;;;2.53;1.17;;;;;;;23.06;53.64;93600.91;5009095;28;20050;-70
2022/09/08 09:29:08;;;;;;;2.93;1.20;;;;;;;26.53;45.23;93597.81;5009440;28;20042;-77
2022/09/08 09:31:53;;;;;;;2.80;1.00;;;;;;;26.85;44.40;93598.75;5009949;28;20446;-67
2022/09/08 09:34:32;;;;;;;2.63;1.10;;;;;;;26.90;42.25;93597.94;5008934;28;20079;-72
2022/09/08 09:37:02;;;;;;;3.42;1.15;;;;;;;24.89;47.08;93596.19;4997186;28;20044;-76
2022/09/08 09:39:46;;;;;;;3.20;1.35;;;;;;;23.56;50.38;93597.44;5010191;28;20041;-67
2022/09/08 09:42:31;;;;;;;2.93;1.00;;;;;;;23.08;49.32;93604.75;5008915;28;20049;-70
2022/09/08 09:45:24;;;;;;;3.80;1.10;;;;;;;21.79;53.39;93596.44;5009020;28;20052;-68
2022/09/08 09:47:57;;;;;;;3.35;1.25;;;;;;;21.72;54.12;93597.66;5009385;28;20056;-67
2022/09/08 09:50:53;;;;;;;2.78;1.20;;;;;;;22.87;51.97;93589.41;5009611;28;20046;-70
2022/09/08 09:54:00;;;;;;;2.40;1.13;;;;;;;22.96;51.82;93585.59;4980820;28;20124;-72
2022/09/08 09:57:01;;;;;;;3.37;1.20;;;;;;;22.99;51.38;93596.56;4970325;28;20077;-66
2022/09/08 10:00:07;;;;;;;2.88;1.00;;;;;;;23.37;48.95;93596.41;5002121;28;22479;-67
2022/09/08 10:03:09;;;;;;;4.10;1.40;;;;;;;23.20;49.97;93602.75;5013583;28;20050;-68
2022/09/08 10:06:30;;;;;;;2.22;0.95;;;;;;;23.82;47.14;93594.41;5012672;28;21296;-70
2022/09/08 10:09:42;;;;;;;2.60;1.00;;;;;;;22.39;50.77;93595.81;5007378;28;20861;-67
2022/09/08 10:12:48;;;;;;;2.20;1.00;;;;;;;23.99;47.35;93599.25;5012876;28;20040;-68
2022/09/08 10:15:33;;;;;;;2.40;1.00;;;;;;;27.03;42.01;93579.59;5011201;28;20704;-68
2022/09/08 10:18:23;;;;;;;3.53;1.23;;;;;;;26.64;41.33;93592.09;5011209;28;20046;-67
2022/09/08 10:21:18;;;;;;;2.35;0.90;;;;;;;26.90;40.60;93586.66;5012796;28;20062;-67
2022/09/08 10:23:57;;;;;;;3.55;0.90;;;;;;;26.64;39.63;93575.19;5012833;28;20050;-71
2022/09/08 10:26:35;;;;;;;2.33;0.90;;;;;;;25.16;42.53;93588.16;5012998;28;20396;-71
2022/09/08 10:29:28;;;;;;;3.65;0.70;;;;;;;25.93;41.31;93593.78;4999787;28;20041;-74
2022/09/08 10:32:17;;;;;;;2.35;0.95;;;;;;;24.67;42.97;93591.44;5012732;28;20452;-67
2022/09/08 10:34:58;;;;;;;2.55;1.08;;;;;;;24.97;42.82;93597.22;5013005;28;20045;-67
2022/09/08 10:38:03;;;;;;;4.22;1.00;;;;;;;24.74;44.37;93595.78;5011941;28;20112;-67
2022/09/08 10:41:00;;;;;;;2.90;1.20;;;;;;;23.96;43.47;93587.00;5012150;28;20469;-67
2022/09/08 10:43:38;;;;;;;2.80;0.90;;;;;;;24.03;44.00;93594.91;5011802;28;20839;-66
2022/09/08 10:46:42;;;;;;;4.45;1.27;;;;;;;24.52;44.51;93600.19;5011917;28;20426;-67
2022/09/08 10:49:18;;;;;;;2.72;1.08;;;;;;;23.77;43.31;93591.59;5012058;28;20099;-69
2022/09/08 10:52:03;;;;;;;2.42;0.90;;;;;;;24.06;43.49;93587.50;5012226;28;20115;-65
2022/09/08 10:55:07;;;;;;;3.43;1.20;;;;;;;23.35;46.61;93596.16;4999151;28;20469;-67
2022/09/08 10:57:55;;;;;;;1.95;0.98;;;;;;;24.40;44.13;93596.63;5011700;28;20054;-67
2022/09/08 11:00:23;;;;;;;2.03;0.77;;;;;;;26.23;38.08;93584.56;5011432;28;21573;-67
2022/09/08 11:03:08;;;;;;;3.55;0.77;;;;;;;28.38;35.98;93596.50;5011998;28;20056;-68
2022/09/08 11:05:40;;;;;;;2.35;0.82;;;;;;;26.02;39.69;93587.09;5012481;28;20454;-70
2022/09/08 11:08:45;;;;;;;2.20;0.70;;;;;;;26.72;38.94;93581.00;5011705;28;20072;-67
2022/09/08 11:11:35;;;;;;;1.60;0.60;;;;;;;26.80;36.68;93579.09;4969426;28;20479;-67
2022/09/08 11:14:15;;;;;;;2.72;0.70;;;;;;;26.02;39.60;93592.72;4969545;28;20051;-75
2022/09/08 11:17:08;;;;;;;2.78;0.70;;;;;;;23.56;44.76;93589.03;4999677;28;20475;-70
2022/09/08 11:19:40;;;;;;;2.53;0.70;;;;;;;24.21;43.31;93588.00;5010560;28;20392;-72
2022/09/08 11:22:22;;;;;;;2.20;0.90;;;;;;;24.49;42.31;93592.78;5011278;28;20135;-67
2022/09/08 11:25:18;;;;;;;2.40;1.00;;;;;;;23.99;43.22;93586.00;5011780;28;20422;-66
2022/09/08 11:28:14;;;;;;;1.90;0.88;;;;;;;23.51;45.48;93601.00;5011863;28;20103;-64
2022/09/08 11:30:44;;;;;;;2.78;1.00;;;;;;;22.80;46.91;93601.84;4999952;28;20076;-67
2022/09/08 11:33:13;;;;;;;2.53;0.80;;;;;;;23.57;45.15;93610.19;5010621;28;20782;-66
2022/09/08 11:36:10;;;;;;;2.50;0.80;;;;;;;22.92;45.23;93603.41;5011769;28;20457;-68
2022/09/08 11:38:53;;;;;;;3.75;0.80;;;;;;;22.02;46.43;93602.97;5011195;28;20465;-69
2022/09/08 11:41:43;;;;;;;3.00;0.70;;;;;;;22.08;46.66;93603.75;5010990;28;20041;-69
2022/09/08 11:44:42;;;;;;;3.40;0.98;;;;;;;22.47;46.65;93611.63;5010675;28;20445;-67
2022/09/08 11:47:33;;;;;;;2.35;0.80;;;;;;;21.81;46.64;93607.13;5011063;28;20048;-68
2022/09/08 11:50:30;;;;;;;2.83;0.87;;;;;;;22.08;45.73;93612.13;5011297;28;20117;-67
2022/09/08 11:53:29;;;;;;;2.17;0.80;;;;;;;22.77;45.06;93604.88;5010200;28;20115;-70
2022/09/08 11:56:43;;;;;;;2.20;0.75;;;;;;;21.91;45.89;93603.66;5010298;28;20041;-67
2022/09/08 11:59:25;;;;;;;2.92;0.80;;;;;;;22.20;45.52;93612.22;5010508;28;20076;-67
2022/09/08 12:02:29;;;;;;;3.70;0.80;;;;;;;22.04;47.16;93611.59;5011035;28;20054;-66
2022/09/08 12:05:08;;;;;;;2.83;0.90;;;;;;;21.66;46.90;93613.59;5011029;28;20037;-72
2022/09/08 12:08:11;;;;;;;3.08;0.90;;;;;;;21.78;45.91;93617.25;5010514;28;20050;-71
2022/09/08 12:10:44;;;;;;;2.80;1.00;;;;;;;22.62;44.30;93613.47;5011319;28;20073;-67
2022/09/08 12:13:29;;;;;;;3.50;0.85;;;;;;;22.97;44.12;93615.13;5010025;28;20660;-69
2022/09/08 12:16:14;;;;;;;2.60;0.98;;;;;;;22.16;44.89;93617.28;5010829;28;20046;-71
2022/09/08 12:19:12;;;;;;;2.73;0.80;;;;;;;22.45;43.28;93600.16;5009221;28;20046;-71
2022/09/08 12:22:06;;;;;;;2.58;0.90;;;;;;;22.12;44.28;93612.66;5010024;28;20861;-69
2022/09/08 12:25:11;;;;;;;3.05;1.00;;;;;;;21.85;45.02;93613.25;5009533;28;21747;-67